Indian Springs, Nevada Weather observations

Data are for observation ending at time listed.
 Day   Time    Ave.   Ave.  Ave.  Vector   Max.   Stn.    Total    Solar   Ave.  
  of    of     Air    Rel.  Wind   Wind    Wind   Baro.  Precip.   Rad.    Soil  
Year   Day     Temp.  Hum.  Speed  Dir.    Gust   Pres.                    Temp. 
2016   (PST)    F      %     mph   deg.    mph     mb.     in.     W/m2     F   
------------------------------------------------------------------------------
 120   16:30   70.8    18    5.6   262     11.5   900.4    0.00     281    73.5
 120   16:40   71.4    17    6.0   246     13.7   900.7    0.00     244    73.5
 120   16:50   71.4    17    4.6   243      8.8   899.6    0.00     121    73.4
 120   17:00   71.3    17    5.6   245      9.9   899.7    0.00     118    73.3
 120   17:10   70.8    18    5.2   267     10.7   899.6    0.00     114    73.1
 120   17:20   70.5    18    3.4   265      8.6   899.5    0.00      91    72.9
 120   17:30   70.8    17    3.7   250      8.3   899.6    0.00      51    72.8
 120   17:40   70.1    17    3.5   270      7.0   899.5    0.00      49    72.6
 120   17:50   70.3    17    4.0   262      9.3   899.5    0.00      58    72.4
 120   18:00   70.0    18    3.3   266      6.5   899.3    0.00      28    72.2
 120   18:10   70.0    17    3.8   250      7.3   899.4    0.00      14    71.9
 120   18:20   69.9    16    3.7   250      7.7   899.3    0.00       9    71.7
 120   18:30   69.7    17    3.1   265      7.2   899.6    0.00       3    71.5
 120   18:40   69.3    18    2.2   273      4.4   899.3    0.00       0    71.3
 120   18:50   68.7    19    2.4   291      6.5   899.4    0.00       0    71.1
 120   19:00   69.0    17    2.3   265      5.0   899.3    0.00       0    70.9
 120   19:10   68.7    19    1.3   276      3.1   899.2    0.00       0    70.7
 120   19:20   68.1    21    1.2   304      2.8   899.4    0.00       0    70.5
 120   19:30   67.6    22    1.9    26     10.5   899.3    0.00       0    70.3
 120   19:40   65.2    28    4.8    32     15.4   899.5    0.00       0    70.1
 120   19:50   64.5    28    5.3    27     13.2   899.6    0.00       0    70.0
 120   20:00   64.4    28    4.3    22     11.2   899.6    0.00       0    69.8
 120   20:10   64.5    28    3.7    17     10.2   899.7    0.00       0    69.6
 120   20:20   64.4    28    6.2    28     17.6   899.8    0.00       0    69.4
 120   20:30   64.3    28    3.2    21      9.6   899.8    0.00       0    69.2
 120   20:40   64.0    29    3.8    27     10.7   899.4    0.00       0    69.1
 120   20:50   63.7    30    4.2    40     11.8   899.5    0.00       0    68.9
 120   21:00   63.6    30    3.6    33      9.2   899.0    0.00       0    68.8
 120   21:10   63.5    30    3.8    28      8.3   899.2    0.00       0    68.6
 120   21:20   63.3    31    4.3    24     16.4   899.4    0.00       0    68.4
 120   21:30   63.3    31    4.7    21     14.2   899.4    0.00       0    68.3
 120   21:40   62.8    33    5.0    26     12.4   899.3    0.00       0    68.1
 120   21:50   62.5    34    3.8    17     15.5   899.4    0.00       0    68.0
 120   22:00   62.3    33    2.7    14      6.8   899.7    0.00       0    67.9
 120   22:10   61.7    35    1.6    43      5.6   899.4    0.00       0    67.7
 120   22:20   61.4    36    0.9   169      3.7   899.6    0.00       0    67.6
 120   22:30   61.5    35    1.5   162      4.7   899.4    0.00       0    67.5
 120   22:40   61.7    35    1.1   224      2.6   899.1    0.00       0    67.3
 120   22:50   61.6    37    0.5   171      1.9   899.1    0.00       0    67.2
 120   23:00   61.3    37    2.8    22     10.9   899.1    0.00       0    67.1
 120   23:10   59.8    44    4.7    37     15.0   899.0    0.00       0    67.0
 120   23:20   58.5    48    4.7    17     11.1   899.1    0.00       0    66.9
 120   23:30   58.2    50    2.4   351      7.7   899.2    0.00       0    66.7
 120   23:40   58.1    51    2.5     0      8.1   899.6    0.00       0    66.6
 120   23:50   56.4    61    5.3    26     10.7   899.7    0.00       0    66.5
 121    0:00   54.5    66    5.5    26     14.7   899.9    0.00       0    66.4
 121    0:10   52.7    71    7.0    25     18.1   899.9    0.00       0    66.3
 121    0:20   51.6    71    6.0    27     15.3   899.6    0.00       0    66.1
 121    0:30   51.1    72    5.1    24     15.4   899.7    0.00       0    65.9
 121    0:40   50.4    74    5.0    22     12.0   899.8    0.00       0    65.7
 121    0:50   49.6    77    3.1    10     10.0   899.9    0.02       0    65.5
 121    1:00   49.1    79    2.6    15      7.2   900.1    0.03       0    65.2
 121    1:10   48.7    81    1.4    15      4.7   899.6    0.04       0    65.1
 121    1:20   48.2    83    1.3    24      3.5   899.6    0.05       1    65.0
 121    1:30   47.5    85    2.2    38      6.8   900.3    0.06       1    64.3
 121    1:40   47.2    87    0.9    44      4.2   899.6    0.06       0    63.7
 121    1:50   46.8    88    1.0    45      4.7   899.7    0.06       0    62.9
 121    2:00   46.8    89    1.3   232      3.3   899.7    0.05       0    62.4
 121    2:10   46.9    89    2.0   209      4.6   899.8    0.03       0    61.9
 121    2:20   46.8    89    1.1   175      5.3   899.3    0.04       0    61.5
 121    2:30   46.8    89    0.3   106      1.6   899.5    0.04       0    61.0
 121    2:40   46.6    89    0.8   170      2.0   899.4    0.02       1    60.7
 121    2:50   46.1    86    1.9   160      4.7   899.0    0.02       0    60.5
 121    3:00   45.7    82    2.5   167      6.1   899.0    0.01       1    60.2
 121    3:10   44.9    81    3.3   174      7.5   898.7    0.01       0    60.0
 121    3:20   45.0    81    4.0   188      6.9   898.4    0.00       0    59.9
 121    3:30   45.3    79    3.9   193      7.5   898.1    0.00       0    59.9
 121    3:40   45.8    79    2.4   184      5.6   898.2    0.00       0    59.8
 121    3:50   46.1    78    1.0   174      4.4   898.2    0.00       0    59.7
 121    4:00   46.1    80    0.1    90      0.9   898.1    0.00       0    59.5
 121    4:10   45.9    83    1.2    61      2.0   898.2    0.01       0    59.5
 121    4:20   45.6    86    1.3    70      3.0   898.1    0.01       0    59.3
 121    4:30   45.3    87    1.7    93      3.2   897.6    0.01       0    59.0
 121    4:40   45.2    88    1.2    82      2.7   897.8    0.00       0    58.9
 121    4:50   45.4    88    0.7    69      1.8   897.9    0.01       0    58.7
 121    5:00   45.2    88    0.7    99      1.7   898.0    0.00       0    58.6
 121    5:10   45.0    87    0.8   197      2.2   898.0    0.02       3    58.4
 121    5:20   45.1    87    1.7   208      2.9   897.9    0.00       6    58.2
 121    5:30   45.1    87    1.8   212      3.2   898.0    0.01       9    58.1
 121    5:40   45.1    86    0.3   132      1.8   897.8    0.01      13    57.8
 121    5:50   44.9    85    0.9   185      2.3   898.4    0.00      21    57.7
 121    6:00   45.2    85    0.8   180      1.9   898.5    0.01      26    57.6
 121    6:10   45.3    85    0.4   170      1.7   898.2    0.00      32    57.4
 121    6:20   45.2    85    0.8   187      2.8   898.3    0.01      32    57.3
 121    6:30   45.4    86    2.7   204      4.9   898.3    0.01      37    57.2
 121    6:40   45.8    86    2.3   204      4.9   898.2    0.01      45    57.1
 121    6:50   46.1    84    2.2   213      3.6   898.5    0.00      52    56.9
 121    7:00   46.2    83    2.2   212      3.5   898.5    0.01      57    56.8
 121    7:10   46.4    80    2.2   212      4.2   898.5    0.01      65    56.8
 121    7:20   46.7    80    1.0   234      3.0   898.4    0.00      67    56.7
 121    7:30   46.8    79    2.0   248      5.7   898.7    0.01      63    56.6
 121    7:40   46.8    78    2.2   233      7.2   898.7    0.00      55    56.6
 121    7:50   47.0    79    2.0   249      3.4   898.8    0.01      56    56.6
 121    8:00   47.0    80    2.0   253      3.1   898.7    0.00      75    56.5
 121    8:10   47.1    80    2.8   242      4.8   898.9    0.00      76    56.5
 121    8:20   47.4    80    3.6   237      5.7   898.8    0.00      73    56.5
 121    8:30   47.6    80    3.6   242      5.8   898.8    0.00     102    56.6
 121    8:40   48.1    79    2.7   237      4.9   899.1    0.00     140    56.6
 121    8:50   48.4    77    2.5   246      5.8   899.1    0.00     117    56.7
 121    9:00   48.5    76    2.3   252      5.9   899.1    0.00     143    56.6
 121    9:10   49.0    76    2.7   253      5.8   899.4    0.00     167    56.7
 121    9:20   49.2    76    1.6   266      3.7   899.2    0.00     125    56.9
 121    9:30   49.3    76    2.2   266      4.3   899.3    0.00     160    56.9
 121    9:40   49.3    77    2.2   250      5.3   899.1    0.00     159    57.0
 121    9:50   49.3    78    1.7   285      3.9   899.1    0.00     147    57.1
 121   10:00   49.3    78    1.9   241      4.6   899.2    0.00     114    57.3
 121   10:10   49.7    78    1.5   265      3.8   899.2    0.00     111    57.4
 121   10:20   49.8    77    2.6   232      4.4   899.2    0.00     128    57.5
 121   10:30   49.8    77    1.8   267      3.4   899.3    0.00     122    57.6
 121   10:40   50.0    77    2.6   231      4.7   899.3    0.00      89    57.6
 121   10:50   50.1    76    3.2   238      5.6   899.2    0.00     145    57.7
 121   11:00   50.6    76    2.7   238      5.5   899.1    0.00     133    57.8
 121   11:10   51.1    73    2.5   226      5.1   899.2    0.00     146    57.9
 121   11:20   51.6    71    1.2   197      3.4   899.1    0.00     184    57.9
 121   11:30   52.5    70    1.0   281      3.1   899.1    0.00     134    58.0
 121   11:40   52.5    70    1.4   258      3.9   899.3    0.00     148    58.1
 121   11:50   52.8    70    2.5   283      7.2   899.2    0.00     242    58.1
 121   12:00   54.5    67    1.6    37      5.6   899.3    0.00     235    58.2
 121   12:10   55.3    63    3.1    29      8.6   899.3    0.00     227    58.3
 121   12:20   55.4    62    2.7    42      7.5   899.4    0.00     211    58.4
 121   12:30   56.0    61    3.4    25      8.1   899.5    0.01     307    58.6
 121   12:40   56.7    60    4.3    30     10.8   899.6    0.00     486    58.7
 121   12:50   57.6    58    4.6    37     13.0   899.7    0.00     507    58.8
 121   13:00   57.4    58    3.8    36      9.1   899.8    0.00     361    58.9
 121   13:10   57.5    56    4.1    36     13.7   899.8    0.00     318    59.1
 121   13:20   57.7    56    3.6    25      8.9   899.8    0.00     219    59.2
 121   13:30   57.7    56    2.8    38      7.2   899.8    0.00     201    59.4
 121   13:40   57.9    55    3.0    44      7.2   899.8    0.00     193    59.6
 121   13:50   58.4    55    2.0    47      6.1   899.6    0.00     240    59.7
 121   14:00   58.9    53    2.1    37      7.6   899.5    0.00     232    59.8
 121   14:10   59.5    52    1.3    15      4.1   899.5    0.00     257    59.9
 121   14:20   60.4    50    2.0    34      5.9   899.3    0.00     624    60.0
 121   14:30   61.8    49    1.9    18      5.4   899.4    0.00     599    60.1
 121   14:40   62.5    46    3.3    41      6.9   899.5    0.00     770    60.2
 121   14:50   61.7    47    2.0     3      5.2   899.7    0.00     169    60.4
 121   15:00   61.0    47    1.6    29      4.7   899.6    0.00     154    60.7
 121   15:10   60.9    46    0.8    30      2.9   899.4    0.00     150    60.9
 121   15:20   60.8    47    1.1   205      3.0   899.5    0.00      90    61.2
 121   15:30   60.5    49    1.5   107      2.8   899.5    0.00     105    61.4
 121   15:40   60.5    48    1.3   148      3.3   899.4    0.00     114    61.5
 121   15:50   60.6    48    1.6    74      3.4   899.5    0.00      91    61.6
 121   16:00   60.6    49    1.4    32      3.6   899.2    0.00     115    61.7
 121   16:10   60.7    48    0.9    29      2.4   899.2    0.00     143    61.7
 121   16:20   61.2    47    1.4    79      2.6   899.3    0.00     261    61.7

Return to Indian Springs, Nevada graphs page.


Western Regional Climate Center,wrcc@dri.edu